createdAt,value
2017-04-28T00:01:36.972Z,3.84
2017-04-28T00:04:06.133Z,2.88
2017-04-28T00:06:35.338Z,4.28
2017-04-28T00:09:03.821Z,3.72
2017-04-28T00:11:32.988Z,4.04
2017-04-28T00:14:01.849Z,3.40
2017-04-28T00:16:31.026Z,3.72
2017-04-28T00:19:00.188Z,3.76
2017-04-28T00:21:29.780Z,3.72
2017-04-28T00:23:58.603Z,3.30
2017-04-28T00:26:27.774Z,3.72
2017-04-28T00:28:56.970Z,4.38
2017-04-28T00:31:26.146Z,4.62
2017-04-28T00:33:55.318Z,4.00
2017-04-28T00:36:24.526Z,4.12
2017-04-28T00:38:53.684Z,4.08
2017-04-28T00:41:23.608Z,3.94
2017-04-28T00:43:52.468Z,3.94
2017-04-28T00:46:21.637Z,3.76
2017-04-28T00:48:50.813Z,3.90
2017-04-28T00:51:20.008Z,3.90
2017-04-28T00:53:49.399Z,4.12
2017-04-28T00:56:18.571Z,3.10
2017-04-28T00:58:47.769Z,3.96
2017-04-28T01:01:16.816Z,4.10
2017-04-28T01:03:45.637Z,4.80
2017-04-28T01:06:14.846Z,3.62
2017-04-28T01:08:44.019Z,3.78
2017-04-28T01:11:12.850Z,4.76
2017-04-28T01:13:42.783Z,3.70
2017-04-28T01:16:11.961Z,5.36
2017-04-28T01:18:41.895Z,4.68
2017-04-28T01:21:11.845Z,3.68
2017-04-28T01:23:41.019Z,5.06
2017-04-28T01:26:10.181Z,3.70
2017-04-28T01:28:39.389Z,4.88
2017-04-28T01:31:08.360Z,4.38
2017-04-28T01:33:37.525Z,3.66
2017-04-28T01:36:06.373Z,4.34
2017-04-28T01:38:36.291Z,4.96
2017-04-28T01:41:06.229Z,4.60
2017-04-28T01:43:35.404Z,4.94
2017-04-28T01:46:05.321Z,4.40
2017-04-28T01:48:34.546Z,4.12
2017-04-28T01:51:03.373Z,3.80
2017-04-28T01:53:32.541Z,4.68
2017-04-28T01:56:01.736Z,4.32
2017-04-28T01:58:30.915Z,5.48
2017-04-28T02:01:00.128Z,4.34
2017-04-28T02:03:28.981Z,4.32
2017-04-28T02:05:58.025Z,5.12
2017-04-28T02:08:27.466Z,3.42
2017-04-28T02:10:56.326Z,4.02
2017-04-28T02:13:25.492Z,4.54
2017-04-28T02:15:55.412Z,4.72
2017-04-28T02:18:25.350Z,4.46
2017-04-28T02:20:54.529Z,5.08
2017-04-28T02:23:24.458Z,5.26
2017-04-28T02:25:53.653Z,4.46
2017-04-28T02:28:23.561Z,5.22
2017-04-28T02:30:53.158Z,4.24
2017-04-28T02:33:23.081Z,4.50
2017-04-28T02:35:53.016Z,4.16
2017-04-28T02:38:21.841Z,4.92
2017-04-28T02:40:51.010Z,4.74
2017-04-28T02:43:20.209Z,4.08
2017-04-28T02:45:49.029Z,5.50
2017-04-28T02:48:18.205Z,3.98
2017-04-28T02:50:47.397Z,5.00
2017-04-28T02:53:16.575Z,4.88
2017-04-28T02:55:46.145Z,4.66
2017-04-28T02:58:15.038Z,5.84
2017-04-28T03:00:44.201Z,4.50
2017-04-28T03:03:13.516Z,4.98
2017-04-28T03:05:42.016Z,4.72
2017-04-28T03:08:11.114Z,5.66
2017-04-28T03:10:39.945Z,6.06
2017-04-28T03:13:09.882Z,5.40
2017-04-28T03:15:39.049Z,5.72
2017-04-28T03:18:08.420Z,4.56
2017-04-28T03:20:37.633Z,6.62
2017-04-28T03:23:06.831Z,6.10
2017-04-28T03:25:35.817Z,5.88
2017-04-28T03:28:05.010Z,5.62
2017-04-28T03:30:34.189Z,5.94
2017-04-28T03:33:03.005Z,5.68
2017-04-28T03:35:31.852Z,7.52
2017-04-28T03:38:01.025Z,5.94
2017-04-28T03:40:31.862Z,5.88
2017-04-28T03:43:01.775Z,6.12
2017-04-28T03:45:31.702Z,6.40
2017-04-28T03:48:01.638Z,6.22
2017-04-28T03:50:30.812Z,7.58
2017-04-28T03:53:00.735Z,7.46
2017-04-28T03:55:30.672Z,6.66
2017-04-28T03:57:59.837Z,7.12
2017-04-28T04:00:29.783Z,6.40
2017-04-28T04:02:58.661Z,6.86
2017-04-28T04:05:27.838Z,6.18
2017-04-28T04:07:57.003Z,6.68
2017-04-28T04:10:26.201Z,7.84
2017-04-28T04:12:55.373Z,7.04
2017-04-28T04:15:24.553Z,6.38
2017-04-28T04:17:54.492Z,6.38
2017-04-28T04:20:23.680Z,6.98
2017-04-28T04:22:52.875Z,6.50
2017-04-28T04:25:22.072Z,6.66
2017-04-28T04:27:51.233Z,6.26
2017-04-28T04:30:20.396Z,7.58
2017-04-28T04:32:49.597Z,7.84
2017-04-28T04:35:18.753Z,6.38
2017-04-28T04:37:49.746Z,6.52
2017-04-28T04:40:18.918Z,7.42
2017-04-28T04:42:48.094Z,8.60
2017-04-28T04:45:17.684Z,6.42
2017-04-28T04:47:46.845Z,6.72
2017-04-28T04:50:16.008Z,5.20
2017-04-28T04:52:45.198Z,5.74
2017-04-28T04:55:15.252Z,5.40
2017-04-28T04:57:44.429Z,5.28
2017-04-28T05:00:13.623Z,6.12
2017-04-28T05:02:42.257Z,6.30
2017-04-28T05:05:11.090Z,6.54
2017-04-28T05:07:41.021Z,6.84
2017-04-28T05:10:09.832Z,6.50
2017-04-28T05:12:38.662Z,6.88
2017-04-28T05:15:08.858Z,6.92
2017-04-28T05:17:38.031Z,6.80
2017-04-28T05:20:07.204Z,7.08
2017-04-28T05:22:37.133Z,6.54
2017-04-28T05:25:06.305Z,7.42
2017-04-28T05:27:36.452Z,8.00
2017-04-28T05:30:05.318Z,7.66
2017-04-28T05:32:34.139Z,7.48
2017-04-28T05:35:02.955Z,7.72
2017-04-28T05:37:32.150Z,7.90
2017-04-28T05:40:01.313Z,8.20
2017-04-28T05:42:30.680Z,8.04
2017-04-28T05:44:59.874Z,8.62
2017-04-28T05:47:29.041Z,8.68
2017-04-28T05:49:58.214Z,8.74
2017-04-28T05:52:28.153Z,9.10
2017-04-28T05:54:57.317Z,9.76
2017-04-28T05:57:27.245Z,10.30
2017-04-28T05:59:57.184Z,10.24
2017-04-28T06:02:26.344Z,9.46
2017-04-28T06:04:55.943Z,10.48
2017-04-28T06:07:24.798Z,9.94
2017-04-28T06:09:53.956Z,9.74
2017-04-28T06:12:23.888Z,9.64
2017-04-28T06:14:52.705Z,10.22
2017-04-28T06:17:21.874Z,11.46
2017-04-28T06:19:51.084Z,10.20
2017-04-28T06:22:19.909Z,11.32
2017-04-28T06:24:48.751Z,10.68
2017-04-28T06:27:17.574Z,9.46
2017-04-28T06:29:46.797Z,10.48
2017-04-28T06:32:15.988Z,10.92
2017-04-28T06:34:45.165Z,10.88
2017-04-28T06:37:13.990Z,10.42
2017-04-28T06:39:43.193Z,10.46
2017-04-28T06:42:12.008Z,10.60
2017-04-28T06:44:41.912Z,11.54
2017-04-28T06:47:11.854Z,12.64
2017-04-28T06:49:41.016Z,11.62
2017-04-28T06:52:10.426Z,10.48
2017-04-28T06:54:40.364Z,11.30
2017-04-28T06:57:09.532Z,10.50
2017-04-28T06:59:38.705Z,10.58
2017-04-28T07:02:07.553Z,11.70
2017-04-28T07:04:36.730Z,11.64
2017-04-28T07:07:06.650Z,10.16
2017-04-28T07:09:36.237Z,10.78
2017-04-28T07:12:05.414Z,10.62
2017-04-28T07:14:34.582Z,11.28
2017-04-28T07:17:03.433Z,12.06
2017-04-28T07:19:32.597Z,12.48
2017-04-28T07:22:01.425Z,11.78
2017-04-28T07:24:31.462Z,10.50
2017-04-28T07:27:01.368Z,11.54
2017-04-28T07:29:31.305Z,12.76
2017-04-28T07:32:00.474Z,12.38
2017-04-28T07:34:29.302Z,12.48
2017-04-28T07:36:58.515Z,12.84
2017-04-28T07:39:27.680Z,13.00
2017-04-28T07:41:57.626Z,11.44
2017-04-28T07:44:26.826Z,11.90
2017-04-28T07:46:55.997Z,13.10
2017-04-28T07:49:25.912Z,12.62
2017-04-28T07:51:55.844Z,13.54
2017-04-28T07:54:24.678Z,12.44
2017-04-28T07:56:53.851Z,12.76
2017-04-28T07:59:23.045Z,13.12
2017-04-28T08:01:52.212Z,14.48
2017-04-28T08:04:22.138Z,13.06
2017-04-28T08:06:51.342Z,12.98
2017-04-28T08:09:20.505Z,13.36
2017-04-28T08:11:49.669Z,13.10
2017-04-28T08:14:18.892Z,12.82
2017-04-28T08:16:48.060Z,13.76
2017-04-28T08:19:16.885Z,14.36
2017-04-28T08:21:46.085Z,13.36
2017-04-28T08:24:14.908Z,14.00
2017-04-28T08:26:44.086Z,15.26
2017-04-28T08:29:14.032Z,14.82
2017-04-28T08:31:43.202Z,15.80
2017-04-28T08:34:13.120Z,15.84
2017-04-28T08:36:43.294Z,16.16
2017-04-28T08:39:12.470Z,18.30
2017-04-28T08:41:41.653Z,17.80
2017-04-28T08:44:11.592Z,20.24
2017-04-28T08:46:40.757Z,19.92
2017-04-28T08:49:10.330Z,17.18
2017-04-28T08:51:39.177Z,19.60
2017-04-28T08:54:08.341Z,19.22
2017-04-28T08:56:37.506Z,18.90
2017-04-28T08:59:06.345Z,18.96
2017-04-28T09:01:36.256Z,17.38
2017-04-28T09:04:06.197Z,17.70
2017-04-28T09:06:35.365Z,18.70
2017-04-28T09:09:03.654Z,19.16
2017-04-28T09:11:33.585Z,18.30
2017-04-28T09:14:02.752Z,18.64
2017-04-28T09:16:31.913Z,19.36
2017-04-28T09:19:01.137Z,18.76
2017-04-28T09:21:30.306Z,18.46
2017-04-28T09:23:59.478Z,19.04
2017-04-28T09:26:28.676Z,21.04
2017-04-28T09:28:57.849Z,17.32
2017-04-28T09:31:27.026Z,19.22
2017-04-28T09:33:56.231Z,19.84
2017-04-28T09:36:25.408Z,19.18
2017-04-28T09:38:54.577Z,18.92
2017-04-28T09:41:23.773Z,20.22
2017-04-28T09:43:52.949Z,19.34
2017-04-28T09:46:23.893Z,20.52
2017-04-28T09:48:53.078Z,20.06
2017-04-28T09:51:22.265Z,20.14
2017-04-28T09:53:51.122Z,20.48
2017-04-28T09:56:20.288Z,21.14
2017-04-28T09:58:49.856Z,20.76
2017-04-28T10:01:19.065Z,18.84
2017-04-28T10:03:48.232Z,20.94
2017-04-28T10:06:17.062Z,19.64
2017-04-28T10:08:46.257Z,19.50
2017-04-28T10:11:15.424Z,19.88
2017-04-28T10:13:44.600Z,18.40
2017-04-28T10:16:13.807Z,19.48
2017-04-28T10:18:42.974Z,17.76
2017-04-28T10:21:12.914Z,17.88
2017-04-28T10:23:42.089Z,19.54
2017-04-28T10:26:12.009Z,17.22
2017-04-28T10:28:40.097Z,19.00
2017-04-28T10:31:08.572Z,17.50
2017-04-28T10:33:37.746Z,17.12
2017-04-28T10:36:07.685Z,19.34
2017-04-28T10:38:36.858Z,16.98
2017-04-28T10:41:06.781Z,17.62
2017-04-28T10:43:36.720Z,17.76
2017-04-28T10:46:05.544Z,18.32
2017-04-28T10:48:34.713Z,19.04
2017-04-28T10:51:03.918Z,18.44
2017-04-28T10:53:33.090Z,20.92
2017-04-28T10:56:03.009Z,18.38
2017-04-28T10:58:32.609Z,19.42
2017-04-28T11:01:02.174Z,17.76
2017-04-28T11:03:31.349Z,18.58
2017-04-28T11:06:00.558Z,18.12
2017-04-28T11:08:29.733Z,17.44
2017-04-28T11:10:58.910Z,19.08
2017-04-28T11:13:28.853Z,18.40
2017-04-28T11:15:58.031Z,18.48
2017-04-28T11:18:27.956Z,18.68
2017-04-28T11:20:57.436Z,16.86
2017-04-28T11:23:26.598Z,17.94
2017-04-28T11:25:55.769Z,17.70
2017-04-28T11:28:24.972Z,18.14
2017-04-28T11:30:54.140Z,16.84
2017-04-28T11:33:24.066Z,17.84
2017-04-28T11:35:54.025Z,16.12
2017-04-28T11:38:23.188Z,17.26
2017-04-28T11:40:52.366Z,17.94
2017-04-28T11:43:22.311Z,17.92
2017-04-28T11:45:51.476Z,16.08
2017-04-28T11:48:20.304Z,14.80
2017-04-28T11:50:49.141Z,14.30
2017-04-28T11:53:18.313Z,16.02
2017-04-28T11:55:47.509Z,14.76
2017-04-28T11:58:16.684Z,14.60
2017-04-28T12:00:45.853Z,15.36
2017-04-28T12:03:15.785Z,17.30
2017-04-28T12:05:45.692Z,18.34
2017-04-28T12:08:15.644Z,20.28
2017-04-28T12:10:44.833Z,20.52
2017-04-28T12:13:13.661Z,21.18
2017-04-28T12:15:42.862Z,22.08
2017-04-28T12:18:12.032Z,17.82
2017-04-28T12:20:41.201Z,19.70
2017-04-28T12:23:11.141Z,19.82
2017-04-28T12:25:40.697Z,20.82
2017-04-28T12:28:09.861Z,19.78
2017-04-28T12:30:39.065Z,23.02
2017-04-28T12:33:08.236Z,22.64
2017-04-28T12:35:37.405Z,20.90
2017-04-28T12:38:07.350Z,23.44
2017-04-28T12:40:36.796Z,24.37
2017-04-28T12:43:05.960Z,22.48
2017-04-28T12:45:35.157Z,20.46
2017-04-28T12:48:04.333Z,16.26
2017-04-28T12:50:34.269Z,12.76
2017-04-28T12:53:04.442Z,10.07
2017-04-28T12:55:33.634Z,7.98
2017-04-28T12:58:02.817Z,9.78
2017-04-28T13:00:31.989Z,10.86
2017-04-28T13:03:01.169Z,10.80
2017-04-28T13:05:31.137Z,12.10
2017-04-28T13:07:59.970Z,11.26
2017-04-28T13:10:29.882Z,9.16
2017-04-28T13:12:59.921Z,8.20
2017-04-28T13:15:29.101Z,8.90
2017-04-28T13:17:59.020Z,7.78
2017-04-28T13:20:28.940Z,8.10
2017-04-28T13:22:58.909Z,10.34
2017-04-28T13:25:28.084Z,9.24
2017-04-28T13:27:57.302Z,9.10
2017-04-28T13:30:26.473Z,10.34
2017-04-28T13:32:55.645Z,9.40
2017-04-28T13:35:25.580Z,9.26
2017-04-28T13:37:54.745Z,10.76
2017-04-28T13:40:23.920Z,11.18
2017-04-28T13:42:53.117Z,9.10
2017-04-28T13:45:22.288Z,9.38
2017-04-28T13:47:51.113Z,10.18
2017-04-28T13:50:19.957Z,9.52
2017-04-28T13:52:49.126Z,9.88
2017-04-28T13:55:18.306Z,11.64
2017-04-28T13:57:47.508Z,12.70
2017-04-28T14:00:16.324Z,13.56
2017-04-28T14:02:46.228Z,13.66
2017-04-28T14:05:15.467Z,10.90
2017-04-28T14:07:44.634Z,12.20
2017-04-28T14:10:14.563Z,12.68
2017-04-28T14:12:44.156Z,13.38
2017-04-28T14:15:14.094Z,11.38
2017-04-28T14:17:43.317Z,11.06
2017-04-28T14:20:12.525Z,11.96
2017-04-28T14:22:41.702Z,11.96
2017-04-28T14:25:10.872Z,11.76
2017-04-28T14:27:40.817Z,11.32
2017-04-28T14:30:09.977Z,12.74
2017-04-28T14:32:39.144Z,15.08
2017-04-28T14:35:07.997Z,14.02
2017-04-28T14:37:37.170Z,14.40
2017-04-28T14:40:07.097Z,14.46
2017-04-28T14:42:36.698Z,13.42
2017-04-28T14:45:06.608Z,12.60
2017-04-28T14:47:35.789Z,14.66
2017-04-28T14:50:05.269Z,17.77
2017-04-28T14:52:34.445Z,16.30
2017-04-28T14:55:03.632Z,16.64
2017-04-28T14:57:32.494Z,13.84
2017-04-28T15:00:01.658Z,14.30
2017-04-28T15:02:30.829Z,13.72
2017-04-28T15:05:00.044Z,14.86
2017-04-28T15:07:29.217Z,13.04
2017-04-28T15:09:58.389Z,12.54
2017-04-28T15:12:27.596Z,13.32
2017-04-28T15:14:57.780Z,14.22
2017-04-28T15:17:26.980Z,12.74
2017-04-28T15:19:56.149Z,13.38
2017-04-28T15:22:25.323Z,14.02
2017-04-28T15:24:55.270Z,14.20
2017-04-28T15:27:24.449Z,12.52
2017-04-28T15:29:53.621Z,13.08
2017-04-28T15:32:22.825Z,13.52
2017-04-28T15:34:52.413Z,10.26
2017-04-28T15:37:21.577Z,10.86
2017-04-28T15:39:50.698Z,11.34
2017-04-28T15:42:19.873Z,8.44
2017-04-28T15:44:49.042Z,7.82
2017-04-28T15:47:18.969Z,6.66
2017-04-28T15:49:48.128Z,6.98
2017-04-28T15:52:17.294Z,6.84
2017-04-28T15:54:46.491Z,5.52
2017-04-28T15:57:15.304Z,4.42
2017-04-28T15:59:44.477Z,5.20
2017-04-28T16:02:13.685Z,4.32
2017-04-28T16:04:42.853Z,3.82
2017-04-28T16:07:12.021Z,4.00
2017-04-28T16:09:41.963Z,4.02
2017-04-28T16:12:11.125Z,3.38
2017-04-28T16:14:40.284Z,3.88
2017-04-28T16:17:09.158Z,3.90
2017-04-28T16:19:38.309Z,3.04
2017-04-28T16:22:07.147Z,3.44
2017-04-28T16:24:36.337Z,3.98
2017-04-28T16:27:04.821Z,3.40
2017-04-28T16:29:33.985Z,3.40
2017-04-28T16:32:03.180Z,4.28
2017-04-28T16:34:32.013Z,4.50
2017-04-28T16:37:01.177Z,4.88
2017-04-28T16:39:30.800Z,4.36
2017-04-28T16:42:00.362Z,4.54
2017-04-28T16:44:29.528Z,4.76
2017-04-28T16:46:58.385Z,4.96
2017-04-28T16:49:28.295Z,4.84
2017-04-28T16:51:58.228Z,7.62
2017-04-28T16:54:27.877Z,7.28
2017-04-28T16:56:57.043Z,6.62
2017-04-28T16:59:26.238Z,6.76
2017-04-28T17:01:56.145Z,8.34
2017-04-28T17:04:26.086Z,6.42
2017-04-28T17:06:55.244Z,7.36
2017-04-28T17:09:24.404Z,7.72
2017-04-28T17:11:53.602Z,6.52
2017-04-28T17:14:22.774Z,8.08
2017-04-28T17:16:51.592Z,7.76
2017-04-28T17:19:20.784Z,6.80
2017-04-28T17:21:49.940Z,6.60
2017-04-28T17:24:19.905Z,6.36
2017-04-28T17:26:49.067Z,6.26
2017-04-28T17:29:18.237Z,7.02
2017-04-28T17:31:47.444Z,7.24
2017-04-28T17:34:17.345Z,5.80
2017-04-28T17:36:46.530Z,7.28
2017-04-28T17:39:15.618Z,6.16
2017-04-28T17:41:44.439Z,6.62
2017-04-28T17:44:13.600Z,6.08
2017-04-28T17:46:43.433Z,6.52
2017-04-28T17:49:12.595Z,5.78
2017-04-28T17:51:41.877Z,5.52
2017-04-28T17:54:11.073Z,5.92
2017-04-28T17:56:40.242Z,5.12
2017-04-28T17:59:09.408Z,5.58
2017-04-28T18:01:38.248Z,6.76
2017-04-28T18:04:07.808Z,6.02
2017-04-28T18:06:37.217Z,5.60
2017-04-28T18:09:06.419Z,4.90
2017-04-28T18:11:35.236Z,5.22
2017-04-28T18:14:04.408Z,4.60
2017-04-28T18:16:33.609Z,4.70
2017-04-28T18:19:02.764Z,4.30
2017-04-28T18:21:31.930Z,4.62
2017-04-28T18:24:01.136Z,4.48
2017-04-28T18:26:30.726Z,5.34
2017-04-28T18:29:01.191Z,3.80
2017-04-28T18:31:30.348Z,4.02
2017-04-28T18:33:59.165Z,4.58
2017-04-28T18:36:28.798Z,3.86
2017-04-28T18:38:57.962Z,4.08
2017-04-28T18:41:27.145Z,4.02
2017-04-28T18:43:56.342Z,4.34
2017-04-28T18:46:25.513Z,4.76
2017-04-28T18:48:54.677Z,4.56
2017-04-28T18:51:24.277Z,4.18
2017-04-28T18:53:54.209Z,5.22
2017-04-28T18:56:24.137Z,5.00
2017-04-28T18:58:53.569Z,4.88
2017-04-28T19:01:22.734Z,5.12
2017-04-28T19:03:51.986Z,6.10
2017-04-28T19:06:21.150Z,5.14
2017-04-28T19:08:50.308Z,5.68
2017-04-28T19:11:20.486Z,5.26
2017-04-28T19:13:49.644Z,5.42
2017-04-28T19:16:18.804Z,4.82
2017-04-28T19:18:47.992Z,5.34
2017-04-28T19:21:16.804Z,4.84
2017-04-28T19:23:45.621Z,4.52
2017-04-28T19:26:14.813Z,4.00
2017-04-28T19:28:44.708Z,5.20
2017-04-28T19:31:13.885Z,4.90
2017-04-28T19:33:43.110Z,5.54
2017-04-28T19:36:13.036Z,5.22
2017-04-28T19:38:42.967Z,4.48
2017-04-28T19:41:12.136Z,4.62
2017-04-28T19:43:41.305Z,4.96
2017-04-28T19:46:10.158Z,4.98
2017-04-28T19:48:39.349Z,5.34
2017-04-28T19:51:08.523Z,5.10
2017-04-28T19:53:37.722Z,5.16
2017-04-28T19:56:06.890Z,5.42
2017-04-28T19:58:36.102Z,5.34
2017-04-28T20:01:04.966Z,6.24
2017-04-28T20:03:34.128Z,5.22
2017-04-28T20:06:04.053Z,5.78
2017-04-28T20:08:33.240Z,5.64
2017-04-28T20:11:03.160Z,5.82
2017-04-28T20:13:33.100Z,5.84
2017-04-28T20:16:02.293Z,5.58
2017-04-28T20:18:31.466Z,5.56
2017-04-28T20:21:01.604Z,5.72
2017-04-28T20:23:30.801Z,5.66
2017-04-28T20:25:59.964Z,5.64
2017-04-28T20:28:29.141Z,5.80
2017-04-28T20:30:57.991Z,6.46
2017-04-28T20:33:27.401Z,6.28
2017-04-28T20:35:56.565Z,6.20
2017-04-28T20:38:25.449Z,6.34
2017-04-28T20:40:54.621Z,6.40
2017-04-28T20:43:23.841Z,6.70
2017-04-28T20:45:52.849Z,6.82
2017-04-28T20:48:21.674Z,7.62
2017-04-28T20:50:50.537Z,6.14
2017-04-28T20:53:20.152Z,6.40
2017-04-28T20:55:49.709Z,7.38
2017-04-28T20:58:18.878Z,6.82
2017-04-28T21:00:47.753Z,7.80
2017-04-28T21:03:17.539Z,7.14
2017-04-28T21:05:46.707Z,7.96
2017-04-28T21:08:15.901Z,7.80
2017-04-28T21:10:45.065Z,7.42
2017-04-28T21:13:14.241Z,7.14
2017-04-28T21:15:43.656Z,6.30
2017-04-28T21:18:13.220Z,6.62
2017-04-28T21:20:42.270Z,6.14
2017-04-28T21:23:11.130Z,6.18
2017-04-28T21:25:40.648Z,6.92
2017-04-28T21:28:09.474Z,6.32
2017-04-28T21:30:38.669Z,5.36
2017-04-28T21:33:07.492Z,6.94
2017-04-28T21:35:36.686Z,6.02
2017-04-28T21:38:05.885Z,5.74
2017-04-28T21:40:35.054Z,6.24
2017-04-28T21:43:03.879Z,4.92
2017-04-28T21:45:33.076Z,4.62
2017-04-28T21:48:02.250Z,5.32
2017-04-28T21:50:31.418Z,4.94
2017-04-28T21:53:01.362Z,4.74
2017-04-28T21:55:30.534Z,4.30
2017-04-28T21:58:00.484Z,4.24
2017-04-28T22:00:29.326Z,3.80
2017-04-28T22:02:58.165Z,4.02
2017-04-28T22:05:27.335Z,4.88
2017-04-28T22:07:57.289Z,4.30
2017-04-28T22:10:26.463Z,4.14
2017-04-28T22:12:55.624Z,3.60
2017-04-28T22:15:39.910Z,4.18
2017-04-28T22:18:08.733Z,4.58
2017-04-28T22:20:37.566Z,4.06
2017-04-28T22:23:07.504Z,4.08
2017-04-28T22:25:36.678Z,3.50
2017-04-28T22:28:06.601Z,4.10
2017-04-28T22:30:36.234Z,2.96
2017-04-28T22:33:05.396Z,3.30
2017-04-28T22:35:34.560Z,3.50
2017-04-28T22:38:03.758Z,2.90
2017-04-28T22:40:32.580Z,2.50
2017-04-28T22:43:01.741Z,3.02
2017-04-28T22:45:30.590Z,2.62
2017-04-28T22:48:00.498Z,2.36
2017-04-28T22:50:30.451Z,2.48
2017-04-28T22:52:59.614Z,1.80
2017-04-28T22:55:29.531Z,2.08
2017-04-28T22:57:58.738Z,2.44
2017-04-28T23:00:28.659Z,2.10
2017-04-28T23:02:57.869Z,2.34
2017-04-28T23:05:27.089Z,2.30
2017-04-28T23:07:56.249Z,2.10
2017-04-28T23:10:26.174Z,2.18
2017-04-28T23:12:55.017Z,2.30
2017-04-28T23:15:24.190Z,2.44
2017-04-28T23:17:53.012Z,2.64
2017-04-28T23:20:22.224Z,2.30
2017-04-28T23:22:51.294Z,2.10
2017-04-28T23:25:20.457Z,2.12
2017-04-28T23:27:49.662Z,2.76
2017-04-28T23:30:18.816Z,2.32
2017-04-28T23:32:47.635Z,2.72
2017-04-28T23:35:16.828Z,2.66
2017-04-28T23:37:46.393Z,2.66
2017-04-28T23:40:15.566Z,2.30
2017-04-28T23:42:44.780Z,2.30
2017-04-28T23:45:13.950Z,2.52
2017-04-28T23:47:43.118Z,3.00
2017-04-28T23:50:13.059Z,3.22
2017-04-28T23:52:42.324Z,2.50
2017-04-28T23:55:11.496Z,2.46
2017-04-28T23:57:40.706Z,2.48
